Marland, OK (74644)

11:38 CDT le 25 août 2016 (GMT -0500)
APRSWXNET | | Change Station

Alt. 1007 ft 36.70 °N, 97.10 °W | Updated 24 minutes ago

Clear
Ciel dégagé
83 ° F
Paraît 88 ° F
N
1
Vent Variable Vent de Ouest
Gusts 13.0 mph

Aujourd'hui
Haut(e) -- | Bas -- ° F
--% Risque de précip.
Hier
Haut(e) -- | Bas -- ° F
Precip. -- pouce
Pression 30.05 pouce
Visibilité 10.0 Miles terrestres
Nuages Ciel dégagé
indice de chaleur 88 ° F
Point de rosée 71 ° F
Humidité 67%
Précipitations pouce
Profondeur de la couche neigeuse Non disponible.
6:54 AM 8:05 PM
Dernier quartier, 44% visible
METAR KPNC 251553Z AUTO 27009G15KT 10SM CLR 28/19 A3008 RMK AO2 SLP174 T02780194
Pression 30.05 pouce
Visibilité 10.0 Miles terrestres
Nuages Ciel dégagé
indice de chaleur 88 ° F
Point de rosée 71 ° F
Humidité 67%
Précipitations pouce
Profondeur de la couche neigeuse Non disponible.
6:54 AM 8:05 PM
Dernier quartier, 44% visible
METAR KPNC 251553Z AUTO 27009G15KT 10SM CLR 28/19 A3008 RMK AO2 SLP174 T02780194

10-Day Weather Forecast

Almanac

Astronomie

Aug. 25, 2016 Lever Coucher
Temps réel
Crépuscule civil
Crépuscule nautique
Crépuscule astronomique
Lune
Durée de lumière visible
Longueur du jour
Tomorrow will be .
, % of the Moon is Illuminated

Extrêmes aujourd'hui

State Highs State Lows

Community

WunderPhotos

Upload Photos

1,934,869 Photos téléchargées !

WunderBlog® & News

Nearby

Qualité de l'air

  Qualité de l'air Indice de la qualité de l'air Polluant
Not available.

Épaisseur de neige

Station Depth Altitude

Activité sismique

Ville Distance Mag. Time & Date
Minimum magnitude displayed is 2.5.

Températures des eaux côtières

Lieu Température

Stations

Stations météo à proximité

Emplacement de la station Température Refroidissement éolien Point de rosée Humidité Vent Precip. Alt. Mise à jour Type
                   

Watches & Warnings

There are currently no watches in effect.